Ns Point — A8LV3 — position and weather

sailwx.info

Track history (hours):
 
Tides and Currents Weather Stations Pressure Air Temp Water Temp Dewpoint Dewpoint Depression Visibility Wind Speed Wind Dir Waves Ship Positions

Ns Point

Last reported at 2018-Feb-11 21:50 UTC. Time now 2018-Feb-19 14:26 UTC.
Position N 41°31' W 071°20'.

Length 176 m; draft 7.3 m.

Type: Tanker. MMSI: 636013276.

Date/timePositionNaut miles runAvg speedWind from/ knotsBaromVisibWave heightAir tempDewpointWater temp
2018-Feb-11 21:50N 41°31' W 071°20'613.1
2018-Feb-11 21:23N 41°37' W 071°18'512.6
2018-Feb-11 21:00N 41°42' W 071°19'611.2
2018-Feb-11 20:30N 41°47' W 071°22'0 0.2
2018-Feb-11 19:58N 41°47' W 071°22'0 0.0
2018-Feb-11 19:22N 41°47' W 071°22'0 0.0
2018-Feb-11 18:58N 41°47' W 071°22'0 0.0
2018-Feb-11 18:28N 41°47' W 071°22'0 0.0
2018-Feb-11 17:58N 41°47' W 071°22'0 0.0
2018-Feb-11 17:16N 41°47' W 071°22'0 0.0
2018-Feb-11 16:58N 41°47' W 071°22'0 0.0
2018-Feb-11 16:28N 41°47' W 071°22'0 0.0
2018-Feb-11 15:58N 41°47' W 071°22'0 0.0
2018-Feb-11 15:22N 41°47' W 071°22'0 0.0
2018-Feb-11 14:58N 41°47' W 071°22'0 0.0
2018-Feb-11 14:28N 41°47' W 071°22'0 0.0
2018-Feb-11 13:58N 41°47' W 071°22'0 0.0
2018-Feb-11 13:28N 41°47' W 071°22'0 0.0
2018-Feb-11 12:58N 41°47' W 071°22'0 0.0
2018-Feb-11 12:28N 41°47' W 071°22'0 0.0
2018-Feb-11 11:58N 41°47' W 071°22'0 0.0
2018-Feb-11 11:28N 41°47' W 071°22'0 0.0
2018-Feb-11 10:58N 41°47' W 071°22'0 0.0
2018-Feb-11 10:22N 41°47' W 071°22'0 0.0
2018-Feb-11 09:58N 41°47' W 071°22'0 0.0
2018-Feb-11 09:28N 41°47' W 071°22'0 0.0
2018-Feb-11 08:59N 41°47' W 071°22'0 0.0
2018-Feb-11 08:28N 41°47' W 071°22'0 0.0
2018-Feb-11 07:58N 41°47' W 071°22'0 0.0
2018-Feb-11 07:16N 41°47' W 071°22'0 0.0
2018-Feb-11 06:46N 41°47' W 071°22'0 0.0
2018-Feb-11 06:22N 41°47' W 071°22'0 0.0
2018-Feb-11 05:52N 41°47' W 071°22'0 0.0
2018-Feb-11 05:22N 41°47' W 071°22'0 0.0
2018-Feb-11 04:58N 41°47' W 071°22'0 0.0
2018-Feb-11 04:28N 41°47' W 071°22'0 0.0
2018-Feb-11 03:58N 41°47' W 071°22'0 0.0
2018-Feb-11 03:17N 41°47' W 071°22'0 0.0
2018-Feb-11 02:52N 41°47' W 071°22'0 0.0
2018-Feb-11 02:28N 41°47' W 071°22'0 0.0
2018-Feb-11 01:58N 41°47' W 071°22'0 0.0
2018-Feb-11 01:28N 41°47' W 071°22'0 0.0
2018-Feb-11 00:58N 41°47' W 071°22'0 0.0
2018-Feb-11 00:28N 41°47' W 071°22'0 0.0
2018-Feb-10 23:58N 41°47' W 071°22'0 0.0
2018-Feb-10 23:28N 41°47' W 071°22'0 0.0
2018-Feb-10 22:58N 41°47' W 071°22'0 0.0
2018-Feb-10 22:28N 41°47' W 071°22'0 0.0
2018-Feb-10 21:40N 41°47' W 071°22'0 0.0
2018-Feb-10 21:16N 41°47' W 071°22'0 0.0
2018-Feb-10 20:46N 41°47' W 071°22'0 0.0
2018-Feb-10 20:16N 41°47' W 071°22'0 0.0
2018-Feb-10 19:58N 41°47' W 071°22'0 0.0
2018-Feb-10 19:22N 41°47' W 071°22'0 0.0
2018-Feb-10 18:58N 41°47' W 071°22'0 0.0
2018-Feb-10 18:28N 41°47' W 071°22'0 0.0
2018-Feb-10 17:58N 41°47' W 071°22'0 0.0
2018-Feb-10 17:27N 41°47' W 071°22'1 2.1
2018-Feb-10 17:00N 41°46' W 071°23'3 6.3
2018-Feb-10 16:30N 41°43' W 071°21'510.7
2018-Feb-10 16:00N 41°38' W 071°18'612.3
2018-Feb-10 15:28N 41°32' W 071°20'1 1.8
2018-Feb-10 14:59N 41°31' W 071°21'0 0.1
2018-Feb-10 14:17N 41°31' W 071°21'0 0.1
2018-Feb-10 13:58N 41°31' W 071°21'0 0.0
2018-Feb-10 13:17N 41°31' W 071°21'0 0.0
2018-Feb-10 12:58N 41°31' W 071°21'0 0.0
2018-Feb-10 12:29N 41°31' W 071°21'0 0.0
2018-Feb-10 11:53N 41°31' W 071°21'0 0.0
2018-Feb-10 11:22N 41°31' W 071°21'0 0.0
2018-Feb-10 10:53N 41°31' W 071°21'0 0.0
2018-Feb-10 10:29N 41°31' W 071°21'0 0.1
2018-Feb-10 09:59N 41°31' W 071°21'0 0.1
2018-Feb-10 09:29N 41°31' W 071°21'0 0.0
2018-Feb-10 02:05N 41°31' W 071°21'0 0.1
2018-Feb-10 01:58N 41°31' W 071°21'2 5.1
2018-Feb-10 01:29N 41°29' W 071°21'68 3.3
2018-Feb-09 05:00N 42°18' W 070°20'2013.1
2018-Feb-09 03:30N 42°21' W 070°46'612.1
2018-Feb-09 03:00N 42°22' W 070°54'7 7.1
2018-Feb-09 02:00N 42°23' W 071°03'14 0.7
2018-Feb-08 04:00N 42°23' W 070°44'612.0
2018-Feb-08 03:30N 42°21' W 070°36'612.0
2018-Feb-08 03:00N 42°21' W 070°28'  
Track history (hours):
 
Tides and Currents Weather Stations Pressure Air Temp Water Temp Dewpoint Dewpoint Depression Visibility Wind Speed Wind Dir Waves Ship Positions

Ns Point

Last reported at 2018-Feb-11 21:50 UTC. Time now 2018-Feb-19 14:26 UTC.
Position N 41°31' W 071°20'.

Length 176 m; draft 7.3 m.

Type: Tanker. MMSI: 636013276.

Date/timePositionNaut miles runAvg speedWind from/ knotsBaromVisibWave heightAir tempDewpointWater temp
2018-Feb-11 21:50N 41°31' W 071°20'613.1
2018-Feb-11 21:23N 41°37' W 071°18'512.6
2018-Feb-11 21:00N 41°42' W 071°19'611.2
2018-Feb-11 20:30N 41°47' W 071°22'0 0.2
2018-Feb-11 19:58N 41°47' W 071°22'0 0.0
2018-Feb-11 19:22N 41°47' W 071°22'0 0.0
2018-Feb-11 18:58N 41°47' W 071°22'0 0.0
2018-Feb-11 18:28N 41°47' W 071°22'0 0.0
2018-Feb-11 17:58N 41°47' W 071°22'0 0.0
2018-Feb-11 17:16N 41°47' W 071°22'0 0.0
2018-Feb-11 16:58N 41°47' W 071°22'0 0.0
2018-Feb-11 16:28N 41°47' W 071°22'0 0.0
2018-Feb-11 15:58N 41°47' W 071°22'0 0.0
2018-Feb-11 15:22N 41°47' W 071°22'0 0.0
2018-Feb-11 14:58N 41°47' W 071°22'0 0.0
2018-Feb-11 14:28N 41°47' W 071°22'0 0.0
2018-Feb-11 13:58N 41°47' W 071°22'0 0.0
2018-Feb-11 13:28N 41°47' W 071°22'0 0.0
2018-Feb-11 12:58N 41°47' W 071°22'0 0.0
2018-Feb-11 12:28N 41°47' W 071°22'0 0.0
2018-Feb-11 11:58N 41°47' W 071°22'0 0.0
2018-Feb-11 11:28N 41°47' W 071°22'0 0.0
2018-Feb-11 10:58N 41°47' W 071°22'0 0.0
2018-Feb-11 10:22N 41°47' W 071°22'0 0.0
2018-Feb-11 09:58N 41°47' W 071°22'0 0.0
2018-Feb-11 09:28N 41°47' W 071°22'0 0.0
2018-Feb-11 08:59N 41°47' W 071°22'0 0.0
2018-Feb-11 08:28N 41°47' W 071°22'0 0.0
2018-Feb-11 07:58N 41°47' W 071°22'0 0.0
2018-Feb-11 07:16N 41°47' W 071°22'0 0.0
2018-Feb-11 06:46N 41°47' W 071°22'0 0.0
2018-Feb-11 06:22N 41°47' W 071°22'0 0.0
2018-Feb-11 05:52N 41°47' W 071°22'0 0.0
2018-Feb-11 05:22N 41°47' W 071°22'0 0.0
2018-Feb-11 04:58N 41°47' W 071°22'0 0.0
2018-Feb-11 04:28N 41°47' W 071°22'0 0.0
2018-Feb-11 03:58N 41°47' W 071°22'0 0.0
2018-Feb-11 03:17N 41°47' W 071°22'0 0.0
2018-Feb-11 02:52N 41°47' W 071°22'0 0.0
2018-Feb-11 02:28N 41°47' W 071°22'0 0.0
2018-Feb-11 01:58N 41°47' W 071°22'0 0.0
2018-Feb-11 01:28N 41°47' W 071°22'0 0.0
2018-Feb-11 00:58N 41°47' W 071°22'0 0.0
2018-Feb-11 00:28N 41°47' W 071°22'0 0.0
2018-Feb-10 23:58N 41°47' W 071°22'0 0.0
2018-Feb-10 23:28N 41°47' W 071°22'0 0.0
2018-Feb-10 22:58N 41°47' W 071°22'0 0.0
2018-Feb-10 22:28N 41°47' W 071°22'0 0.0
2018-Feb-10 21:40N 41°47' W 071°22'0 0.0
2018-Feb-10 21:16N 41°47' W 071°22'0 0.0
2018-Feb-10 20:46N 41°47' W 071°22'0 0.0
2018-Feb-10 20:16N 41°47' W 071°22'0 0.0
2018-Feb-10 19:58N 41°47' W 071°22'0 0.0
2018-Feb-10 19:22N 41°47' W 071°22'0 0.0
2018-Feb-10 18:58N 41°47' W 071°22'0 0.0
2018-Feb-10 18:28N 41°47' W 071°22'0 0.0
2018-Feb-10 17:58N 41°47' W 071°22'0 0.0
2018-Feb-10 17:27N 41°47' W 071°22'1 2.1
2018-Feb-10 17:00N 41°46' W 071°23'3 6.3
2018-Feb-10 16:30N 41°43' W 071°21'510.7
2018-Feb-10 16:00N 41°38' W 071°18'612.3
2018-Feb-10 15:28N 41°32' W 071°20'1 1.8
2018-Feb-10 14:59N 41°31' W 071°21'0 0.1
2018-Feb-10 14:17N 41°31' W 071°21'0 0.1
2018-Feb-10 13:58N 41°31' W 071°21'0 0.0
2018-Feb-10 13:17N 41°31' W 071°21'0 0.0
2018-Feb-10 12:58N 41°31' W 071°21'0 0.0
2018-Feb-10 12:29N 41°31' W 071°21'0 0.0
2018-Feb-10 11:53N 41°31' W 071°21'0 0.0
2018-Feb-10 11:22N 41°31' W 071°21'0 0.0
2018-Feb-10 10:53N 41°31' W 071°21'0 0.0
2018-Feb-10 10:29N 41°31' W 071°21'0 0.1
2018-Feb-10 09:59N 41°31' W 071°21'0 0.1
2018-Feb-10 09:29N 41°31' W 071°21'0 0.0
2018-Feb-10 02:05N 41°31' W 071°21'0 0.1
2018-Feb-10 01:58N 41°31' W 071°21'2 5.1
2018-Feb-10 01:29N 41°29' W 071°21'68 3.3
2018-Feb-09 05:00N 42°18' W 070°20'2013.1
2018-Feb-09 03:30N 42°21' W 070°46'612.1
2018-Feb-09 03:00N 42°22' W 070°54'7 7.1
2018-Feb-09 02:00N 42°23' W 071°03'14 0.7
2018-Feb-08 04:00N 42°23' W 070°44'612.0
2018-Feb-08 03:30N 42°21' W 070°36'612.0
2018-Feb-08 03:00N 42°21' W 070°28'  

Dump ship's entire track history